sensor_id;sensor_type;location;lat;lon;timestamp;pressure;altitude;pressure_sealevel;temperature;humidity
41690;BME280;27372;42.658;23.256;2023-03-08T00:00:36;92963.69;;;7.14;59.05
41690;BME280;27372;42.658;23.256;2023-03-08T00:03:04;92961.41;;;7.18;59.46
41690;BME280;27372;42.658;23.256;2023-03-08T00:05:30;92966.50;;;6.95;59.77
41690;BME280;27372;42.658;23.256;2023-03-08T00:07:55;92979.28;;;6.68;61.37
41690;BME280;27372;42.658;23.256;2023-03-08T00:10:21;92967.13;;;6.86;60.28
41690;BME280;27372;42.658;23.256;2023-03-08T00:12:47;92970.34;;;6.64;61.15
41690;BME280;27372;42.658;23.256;2023-03-08T00:15:13;92967.38;;;6.72;60.89
41690;BME280;27372;42.658;23.256;2023-03-08T00:17:38;92993.44;;;6.84;61.64
41690;BME280;27372;42.658;23.256;2023-03-08T00:20:05;92976.38;;;6.93;60.46
41690;BME280;27372;42.658;23.256;2023-03-08T00:22:38;92980.88;;;7.10;60.45
41690;BME280;27372;42.658;23.256;2023-03-08T00:25:04;92991.91;;;7.00;60.83
41690;BME280;27372;42.658;23.256;2023-03-08T00:27:30;92970.81;;;6.90;61.27
41690;BME280;27372;42.658;23.256;2023-03-08T00:29:56;92978.00;;;6.82;61.32
41690;BME280;27372;42.658;23.256;2023-03-08T00:32:21;92994.41;;;6.54;63.02
41690;BME280;27372;42.658;23.256;2023-03-08T00:34:49;92976.97;;;6.55;63.29
41690;BME280;27372;42.658;23.256;2023-03-08T00:37:15;92988.16;;;6.55;63.19
41690;BME280;27372;42.658;23.256;2023-03-08T00:39:40;92972.59;;;6.72;62.18
41690;BME280;27372;42.658;23.256;2023-03-08T00:42:06;92974.47;;;6.89;61.65
41690;BME280;27372;42.658;23.256;2023-03-08T00:44:31;92955.47;;;6.64;62.37
41690;BME280;27372;42.658;23.256;2023-03-08T00:46:56;92985.50;;;6.26;63.74
41690;BME280;27372;42.658;23.256;2023-03-08T00:49:22;92964.50;;;6.33;63.79
41690;BME280;27372;42.658;23.256;2023-03-08T00:51:48;92966.31;;;6.32;63.66
41690;BME280;27372;42.658;23.256;2023-03-08T00:54:14;92975.09;;;6.67;62.81
41690;BME280;27372;42.658;23.256;2023-03-08T00:56:39;92980.84;;;6.28;63.97
41690;BME280;27372;42.658;23.256;2023-03-08T00:59:05;92978.56;;;5.96;65.34
41690;BME280;27372;42.658;23.256;2023-03-08T01:01:31;92971.78;;;5.83;65.52
41690;BME280;27372;42.658;23.256;2023-03-08T01:03:56;92965.47;;;6.03;65.33
41690;BME280;27372;42.658;23.256;2023-03-08T01:06:22;92968.72;;;6.22;64.53
41690;BME280;27372;42.658;23.256;2023-03-08T01:08:48;92969.72;;;6.45;64.22
41690;BME280;27372;42.658;23.256;2023-03-08T01:11:18;92971.88;;;6.24;64.24
41690;BME280;27372;42.658;23.256;2023-03-08T01:13:44;92969.06;;;6.14;64.57
41690;BME280;27372;42.658;23.256;2023-03-08T01:16:36;92973.22;;;6.50;64.21
41690;BME280;27372;42.658;23.256;2023-03-08T01:19:03;92981.09;;;6.15;64.47
41690;BME280;27372;42.658;23.256;2023-03-08T01:21:30;92976.66;;;6.27;64.39
41690;BME280;27372;42.658;23.256;2023-03-08T01:23:56;92980.50;;;6.13;65.03
41690;BME280;27372;42.658;23.256;2023-03-08T01:26:24;92970.31;;;6.11;65.18
41690;BME280;27372;42.658;23.256;2023-03-08T01:28:50;92986.28;;;6.39;65.03
41690;BME280;27372;42.658;23.256;2023-03-08T01:31:23;92979.66;;;6.60;63.51
41690;BME280;27372;42.658;23.256;2023-03-08T01:33:49;92981.69;;;6.70;63.23
41690;BME280;27372;42.658;23.256;2023-03-08T01:36:17;92984.84;;;6.72;63.30
41690;BME280;27372;42.658;23.256;2023-03-08T01:38:44;92977.38;;;6.63;63.56
41690;BME280;27372;42.658;23.256;2023-03-08T01:41:16;92977.69;;;6.67;63.52
41690;BME280;27372;42.658;23.256;2023-03-08T01:43:42;92978.38;;;6.21;64.49
41690;BME280;27372;42.658;23.256;2023-03-08T01:46:29;92987.09;;;6.03;65.94
41690;BME280;27372;42.658;23.256;2023-03-08T01:49:07;92974.81;;;5.92;66.05
41690;BME280;27372;42.658;23.256;2023-03-08T01:51:37;92981.81;;;5.56;67.89
41690;BME280;27372;42.658;23.256;2023-03-08T01:54:07;92973.66;;;5.64;68.12
41690;BME280;27372;42.658;23.256;2023-03-08T01:56:34;92977.31;;;5.87;67.22
41690;BME280;27372;42.658;23.256;2023-03-08T01:59:02;92981.75;;;5.98;66.58
41690;BME280;27372;42.658;23.256;2023-03-08T02:01:28;92976.31;;;6.12;66.27
41690;BME280;27372;42.658;23.256;2023-03-08T02:03:53;92982.66;;;6.16;66.15
41690;BME280;27372;42.658;23.256;2023-03-08T02:06:19;92967.13;;;6.21;65.59
41690;BME280;27372;42.658;23.256;2023-03-08T02:08:46;92978.81;;;6.30;65.64
41690;BME280;27372;42.658;23.256;2023-03-08T02:11:12;92986.06;;;5.93;66.14
41690;BME280;27372;42.658;23.256;2023-03-08T02:13:39;92985.25;;;5.68;68.26
41690;BME280;27372;42.658;23.256;2023-03-08T02:16:07;92984.47;;;5.91;67.65
41690;BME280;27372;42.658;23.256;2023-03-08T02:18:34;92984.63;;;6.09;66.63
41690;BME280;27372;42.658;23.256;2023-03-08T02:20:59;92988.41;;;5.94;67.33
41690;BME280;27372;42.658;23.256;2023-03-08T02:23:25;92992.38;;;5.97;67.48
41690;BME280;27372;42.658;23.256;2023-03-08T02:25:56;92987.28;;;5.78;67.84
41690;BME280;27372;42.658;23.256;2023-03-08T02:28:25;92985.97;;;5.45;69.02
41690;BME280;27372;42.658;23.256;2023-03-08T02:30:51;92972.25;;;5.38;69.70
41690;BME280;27372;42.658;23.256;2023-03-08T02:33:17;92975.44;;;5.28;70.70
41690;BME280;27372;42.658;23.256;2023-03-08T02:35:44;92979.50;;;5.36;70.10
41690;BME280;27372;42.658;23.256;2023-03-08T02:38:11;92975.56;;;5.45;70.26
41690;BME280;27372;42.658;23.256;2023-03-08T02:40:38;92992.81;;;5.70;68.94
41690;BME280;27372;42.658;23.256;2023-03-08T02:43:03;92981.63;;;5.93;68.00
41690;BME280;27372;42.658;23.256;2023-03-08T02:45:30;92993.69;;;5.52;69.28
41690;BME280;27372;42.658;23.256;2023-03-08T02:47:55;92994.84;;;5.68;69.63
41690;BME280;27372;42.658;23.256;2023-03-08T02:50:21;92993.16;;;5.73;69.42
41690;BME280;27372;42.658;23.256;2023-03-08T02:52:46;93000.78;;;5.87;68.28
41690;BME280;27372;42.658;23.256;2023-03-08T02:55:12;93004.50;;;5.91;68.18
41690;BME280;27372;42.658;23.256;2023-03-08T02:57:37;93003.97;;;6.01;67.74
41690;BME280;27372;42.658;23.256;2023-03-08T03:00:04;93002.06;;;6.08;67.23
41690;BME280;27372;42.658;23.256;2023-03-08T03:02:33;93011.84;;;5.70;68.40
41690;BME280;27372;42.658;23.256;2023-03-08T03:04:58;93005.59;;;5.48;69.56
41690;BME280;27372;42.658;23.256;2023-03-08T03:07:24;93002.66;;;5.56;69.55
41690;BME280;27372;42.658;23.256;2023-03-08T03:09:49;93012.41;;;5.60;69.21
41690;BME280;27372;42.658;23.256;2023-03-08T03:12:15;93010.03;;;5.59;70.00
41690;BME280;27372;42.658;23.256;2023-03-08T03:14:40;93011.34;;;5.07;71.76
41690;BME280;27372;42.658;23.256;2023-03-08T03:17:06;93014.06;;;4.63;74.20
41690;BME280;27372;42.658;23.256;2023-03-08T03:19:31;93008.06;;;4.81;74.12
41690;BME280;27372;42.658;23.256;2023-03-08T03:21:56;93006.38;;;4.87;73.54
41690;BME280;27372;42.658;23.256;2023-03-08T03:24:22;93012.41;;;4.88;73.97
41690;BME280;27372;42.658;23.256;2023-03-08T03:26:50;93007.47;;;4.98;73.51
41690;BME280;27372;42.658;23.256;2023-03-08T03:29:16;93027.06;;;5.01;73.32
41690;BME280;27372;42.658;23.256;2023-03-08T03:31:42;93017.03;;;4.86;73.28
41690;BME280;27372;42.658;23.256;2023-03-08T03:34:07;93022.19;;;5.04;73.29
41690;BME280;27372;42.658;23.256;2023-03-08T03:36:33;93012.56;;;5.05;73.13
41690;BME280;27372;42.658;23.256;2023-03-08T03:38:59;93018.78;;;4.73;73.94
41690;BME280;27372;42.658;23.256;2023-03-08T03:41:24;93011.69;;;4.62;74.96
41690;BME280;27372;42.658;23.256;2023-03-08T03:43:50;93016.53;;;4.77;75.12
41690;BME280;27372;42.658;23.256;2023-03-08T03:46:18;93025.69;;;4.79;74.92
41690;BME280;27372;42.658;23.256;2023-03-08T03:48:44;93015.72;;;4.39;77.54
41690;BME280;27372;42.658;23.256;2023-03-08T03:51:12;93031.13;;;4.59;76.36
41690;BME280;27372;42.658;23.256;2023-03-08T03:53:38;93029.19;;;4.73;75.42
41690;BME280;27372;42.658;23.256;2023-03-08T03:56:09;93023.19;;;4.73;75.76
41690;BME280;27372;42.658;23.256;2023-03-08T03:58:36;93031.91;;;4.97;74.96
41690;BME280;27372;42.658;23.256;2023-03-08T04:01:14;93031.75;;;4.92;74.94
41690;BME280;27372;42.658;23.256;2023-03-08T04:03:40;93031.91;;;4.78;75.17
41690;BME280;27372;42.658;23.256;2023-03-08T04:06:12;93018.63;;;4.87;74.90
41690;BME280;27372;42.658;23.256;2023-03-08T04:08:38;93026.66;;;4.66;75.45
41690;BME280;27372;42.658;23.256;2023-03-08T04:11:20;93016.94;;;4.74;75.16
41690;BME280;27372;42.658;23.256;2023-03-08T04:13:46;93024.75;;;4.92;74.99
41690;BME280;27372;42.658;23.256;2023-03-08T04:16:14;93042.19;;;4.73;75.74
41690;BME280;27372;42.658;23.256;2023-03-08T04:18:42;93034.16;;;4.75;76.32
41690;BME280;27372;42.658;23.256;2023-03-08T04:21:08;93033.94;;;4.76;75.76
41690;BME280;27372;42.658;23.256;2023-03-08T04:23:33;93031.56;;;4.56;76.87
41690;BME280;27372;42.658;23.256;2023-03-08T04:26:00;93040.88;;;4.82;76.73
41690;BME280;27372;42.658;23.256;2023-03-08T04:28:26;93032.28;;;4.82;76.44
41690;BME280;27372;42.658;23.256;2023-03-08T04:30:51;93035.09;;;4.80;76.29
41690;BME280;27372;42.658;23.256;2023-03-08T04:33:16;93039.88;;;4.84;76.80
41690;BME280;27372;42.658;23.256;2023-03-08T04:35:42;93047.06;;;5.00;76.06
41690;BME280;27372;42.658;23.256;2023-03-08T04:38:07;93034.50;;;4.97;75.64
41690;BME280;27372;42.658;23.256;2023-03-08T04:40:33;93038.28;;;4.82;75.28
41690;BME280;27372;42.658;23.256;2023-03-08T04:43:18;93036.31;;;4.78;76.69
41690;BME280;27372;42.658;23.256;2023-03-08T04:45:43;93026.56;;;4.73;77.10
41690;BME280;27372;42.658;23.256;2023-03-08T04:48:09;93034.75;;;4.58;77.66
41690;BME280;27372;42.658;23.256;2023-03-08T04:50:34;93031.91;;;4.60;78.07
41690;BME280;27372;42.658;23.256;2023-03-08T04:53:00;93037.47;;;4.63;78.16
41690;BME280;27372;42.658;23.256;2023-03-08T04:55:25;93035.63;;;4.71;77.01
41690;BME280;27372;42.658;23.256;2023-03-08T04:57:51;93044.13;;;4.78;77.11
41690;BME280;27372;42.658;23.256;2023-03-08T05:00:16;93054.66;;;5.02;77.27
41690;BME280;27372;42.658;23.256;2023-03-08T05:02:42;93051.44;;;4.88;77.20
41690;BME280;27372;42.658;23.256;2023-03-08T05:05:07;93062.09;;;5.17;76.08
41690;BME280;27372;42.658;23.256;2023-03-08T05:07:32;93071.41;;;5.06;76.20
41690;BME280;27372;42.658;23.256;2023-03-08T05:09:58;93071.38;;;4.94;76.81
41690;BME280;27372;42.658;23.256;2023-03-08T05:12:23;93069.44;;;5.20;76.50
41690;BME280;27372;42.658;23.256;2023-03-08T05:14:49;93079.38;;;5.41;74.23
41690;BME280;27372;42.658;23.256;2023-03-08T05:17:15;93079.84;;;5.38;74.43
41690;BME280;27372;42.658;23.256;2023-03-08T05:19:40;93079.19;;;5.24;74.93
41690;BME280;27372;42.658;23.256;2023-03-08T05:22:06;93087.66;;;5.20;74.88
41690;BME280;27372;42.658;23.256;2023-03-08T05:24:31;93093.06;;;5.37;75.43
41690;BME280;27372;42.658;23.256;2023-03-08T05:26:57;93097.97;;;5.75;73.34
41690;BME280;27372;42.658;23.256;2023-03-08T05:29:22;93098.72;;;5.64;73.84
41690;BME280;27372;42.658;23.256;2023-03-08T05:31:49;93102.69;;;5.67;73.94
41690;BME280;27372;42.658;23.256;2023-03-08T05:34:14;93099.16;;;5.61;73.89
41690;BME280;27372;42.658;23.256;2023-03-08T05:36:40;93105.97;;;5.62;74.06
41690;BME280;27372;42.658;23.256;2023-03-08T05:39:07;93110.19;;;5.75;73.81
41690;BME280;27372;42.658;23.256;2023-03-08T05:41:32;93117.38;;;5.91;73.04
41690;BME280;27372;42.658;23.256;2023-03-08T05:43:59;93109.06;;;5.71;72.94
41690;BME280;27372;42.658;23.256;2023-03-08T05:46:25;93121.06;;;6.02;72.47
41690;BME280;27372;42.658;23.256;2023-03-08T05:48:50;93110.09;;;5.82;73.44
41690;BME280;27372;42.658;23.256;2023-03-08T05:51:17;93119.66;;;5.88;73.32
41690;BME280;27372;42.658;23.256;2023-03-08T05:53:42;93117.00;;;5.76;74.00
41690;BME280;27372;42.658;23.256;2023-03-08T05:56:18;93114.53;;;5.93;74.28
41690;BME280;27372;42.658;23.256;2023-03-08T05:58:44;93114.72;;;6.10;73.96
41690;BME280;27372;42.658;23.256;2023-03-08T06:01:18;93123.50;;;6.40;72.96
41690;BME280;27372;42.658;23.256;2023-03-08T06:03:45;93124.63;;;6.32;72.57
41690;BME280;27372;42.658;23.256;2023-03-08T06:06:12;93117.72;;;6.37;72.56
41690;BME280;27372;42.658;23.256;2023-03-08T06:08:38;93127.56;;;6.35;71.79
41690;BME280;27372;42.658;23.256;2023-03-08T06:11:03;93123.13;;;6.36;73.09
41690;BME280;27372;42.658;23.256;2023-03-08T06:13:29;93123.97;;;6.60;72.31
41690;BME280;27372;42.658;23.256;2023-03-08T06:15:58;93126.22;;;6.68;71.83
41690;BME280;27372;42.658;23.256;2023-03-08T06:18:24;93136.09;;;6.90;70.68
41690;BME280;27372;42.658;23.256;2023-03-08T06:21:11;93146.63;;;6.95;70.53
41690;BME280;27372;42.658;23.256;2023-03-08T06:23:37;93139.34;;;7.21;69.00
41690;BME280;27372;42.658;23.256;2023-03-08T06:26:03;93150.88;;;7.37;68.25
41690;BME280;27372;42.658;23.256;2023-03-08T06:28:30;93146.22;;;7.39;68.82
41690;BME280;27372;42.658;23.256;2023-03-08T06:30:56;93149.50;;;7.35;68.36
41690;BME280;27372;42.658;23.256;2023-03-08T06:33:26;93153.50;;;7.37;67.64
41690;BME280;27372;42.658;23.256;2023-03-08T06:35:57;93157.88;;;7.49;67.25
41690;BME280;27372;42.658;23.256;2023-03-08T06:38:23;93158.94;;;7.36;67.25
41690;BME280;27372;42.658;23.256;2023-03-08T06:40:48;93156.81;;;7.21;68.61
41690;BME280;27372;42.658;23.256;2023-03-08T06:43:14;93174.59;;;7.48;68.19
41690;BME280;27372;42.658;23.256;2023-03-08T06:45:39;93164.47;;;7.51;67.89
41690;BME280;27372;42.658;23.256;2023-03-08T06:48:05;93170.69;;;7.62;67.91
41690;BME280;27372;42.658;23.256;2023-03-08T06:50:31;93184.88;;;7.66;67.05
41690;BME280;27372;42.658;23.256;2023-03-08T06:52:57;93187.25;;;7.68;66.31
41690;BME280;27372;42.658;23.256;2023-03-08T06:55:22;93195.75;;;8.04;65.42
41690;BME280;27372;42.658;23.256;2023-03-08T06:57:48;93199.78;;;8.23;64.74
41690;BME280;27372;42.658;23.256;2023-03-08T07:00:14;93187.94;;;8.50;63.55
41690;BME280;27372;42.658;23.256;2023-03-08T07:02:39;93206.50;;;8.82;62.81
41690;BME280;27372;42.658;23.256;2023-03-08T07:05:05;93193.00;;;8.91;61.56
41690;BME280;27372;42.658;23.256;2023-03-08T07:07:30;93201.22;;;9.16;61.15
41690;BME280;27372;42.658;23.256;2023-03-08T07:09:56;93210.06;;;9.50;60.61
41690;BME280;27372;42.658;23.256;2023-03-08T07:12:22;93211.22;;;9.81;59.88
41690;BME280;27372;42.658;23.256;2023-03-08T07:14:48;93205.09;;;9.98;59.72
41690;BME280;27372;42.658;23.256;2023-03-08T07:17:13;93204.63;;;9.78;58.50
41690;BME280;27372;42.658;23.256;2023-03-08T07:19:38;93224.22;;;9.93;59.29
41690;BME280;27372;42.658;23.256;2023-03-08T07:22:04;93213.72;;;9.71;59.46
41690;BME280;27372;42.658;23.256;2023-03-08T07:24:29;93206.41;;;9.95;58.99
41690;BME280;27372;42.658;23.256;2023-03-08T07:26:55;93211.31;;;10.14;58.24
41690;BME280;27372;42.658;23.256;2023-03-08T07:29:20;93204.63;;;10.28;57.41
41690;BME280;27372;42.658;23.256;2023-03-08T07:31:45;93206.00;;;10.36;56.97
41690;BME280;27372;42.658;23.256;2023-03-08T07:34:11;93208.09;;;10.61;56.77
41690;BME280;27372;42.658;23.256;2023-03-08T07:36:36;93205.56;;;10.71;56.46
41690;BME280;27372;42.658;23.256;2023-03-08T07:39:04;93199.41;;;10.88;56.13
41690;BME280;27372;42.658;23.256;2023-03-08T07:41:29;93197.75;;;10.82;55.08
41690;BME280;27372;42.658;23.256;2023-03-08T07:43:57;93197.53;;;10.83;56.30
41690;BME280;27372;42.658;23.256;2023-03-08T07:46:22;93198.88;;;10.91;55.10
41690;BME280;27372;42.658;23.256;2023-03-08T07:48:47;93202.16;;;11.09;54.40
41690;BME280;27372;42.658;23.256;2023-03-08T07:51:13;93215.25;;;11.03;55.11
41690;BME280;27372;42.658;23.256;2023-03-08T07:53:38;93216.00;;;11.37;54.14
41690;BME280;27372;42.658;23.256;2023-03-08T07:56:05;93213.47;;;11.57;53.58
41690;BME280;27372;42.658;23.256;2023-03-08T07:58:31;93221.91;;;11.59;53.07
41690;BME280;27372;42.658;23.256;2023-03-08T08:00:57;93222.47;;;11.67;52.31
41690;BME280;27372;42.658;23.256;2023-03-08T08:03:22;93211.41;;;11.59;52.55
41690;BME280;27372;42.658;23.256;2023-03-08T08:05:49;93206.09;;;11.49;53.20
41690;BME280;27372;42.658;23.256;2023-03-08T08:08:14;93203.13;;;11.40;52.54
41690;BME280;27372;42.658;23.256;2023-03-08T08:10:40;93213.38;;;11.37;53.05
41690;BME280;27372;42.658;23.256;2023-03-08T08:13:06;93222.63;;;11.49;52.84
41690;BME280;27372;42.658;23.256;2023-03-08T08:15:31;93230.59;;;11.65;52.31
41690;BME280;27372;42.658;23.256;2023-03-08T08:17:57;93222.41;;;11.56;52.54
41690;BME280;27372;42.658;23.256;2023-03-08T08:20:24;93229.53;;;11.61;52.78
41690;BME280;27372;42.658;23.256;2023-03-08T08:22:51;93228.38;;;11.94;51.53
41690;BME280;27372;42.658;23.256;2023-03-08T08:25:18;93222.13;;;12.11;51.58
41690;BME280;27372;42.658;23.256;2023-03-08T08:27:44;93233.03;;;12.51;51.90
41690;BME280;27372;42.658;23.256;2023-03-08T08:30:12;93225.91;;;13.13;49.49
41690;BME280;27372;42.658;23.256;2023-03-08T08:32:37;93234.84;;;13.69;47.89
41690;BME280;27372;42.658;23.256;2023-03-08T08:35:03;93237.88;;;14.07;46.78
41690;BME280;27372;42.658;23.256;2023-03-08T08:37:31;93216.63;;;14.33;45.00
41690;BME280;27372;42.658;23.256;2023-03-08T08:39:57;93223.84;;;14.67;45.09
41690;BME280;27372;42.658;23.256;2023-03-08T08:42:23;93221.50;;;15.30;43.35
41690;BME280;27372;42.658;23.256;2023-03-08T08:44:49;93223.31;;;15.34;43.66
41690;BME280;27372;42.658;23.256;2023-03-08T08:47:14;93205.03;;;15.38;42.63
41690;BME280;27372;42.658;23.256;2023-03-08T08:49:40;93205.88;;;15.58;42.52
41690;BME280;27372;42.658;23.256;2023-03-08T08:52:05;93216.56;;;15.18;42.29
41690;BME280;27372;42.658;23.256;2023-03-08T08:54:31;93212.72;;;15.05;42.85
41690;BME280;27372;42.658;23.256;2023-03-08T08:56:58;93219.69;;;15.25;42.86
41690;BME280;27372;42.658;23.256;2023-03-08T08:59:24;93216.97;;;15.01;43.34
41690;BME280;27372;42.658;23.256;2023-03-08T09:01:49;93222.44;;;14.80;43.20
41690;BME280;27372;42.658;23.256;2023-03-08T09:04:14;93222.78;;;14.63;42.75
41690;BME280;27372;42.658;23.256;2023-03-08T09:06:41;93219.97;;;13.94;45.42
41690;BME280;27372;42.658;23.256;2023-03-08T09:09:07;93227.72;;;13.59;46.32
41690;BME280;27372;42.658;23.256;2023-03-08T09:11:33;93230.63;;;13.68;46.09
41690;BME280;27372;42.658;23.256;2023-03-08T09:13:59;93233.72;;;13.86;45.66
41690;BME280;27372;42.658;23.256;2023-03-08T09:16:30;93227.25;;;14.18;44.87
41690;BME280;27372;42.658;23.256;2023-03-08T09:18:57;93219.88;;;14.14;45.31
41690;BME280;27372;42.658;23.256;2023-03-08T09:21:24;93224.09;;;14.21;45.20
41690;BME280;27372;42.658;23.256;2023-03-08T09:23:50;93224.91;;;14.11;44.86
41690;BME280;27372;42.658;23.256;2023-03-08T09:26:16;93216.75;;;14.57;43.88
41690;BME280;27372;42.658;23.256;2023-03-08T09:28:41;93214.69;;;14.89;43.42
41690;BME280;27372;42.658;23.256;2023-03-08T09:31:08;93214.66;;;15.24;42.40
41690;BME280;27372;42.658;23.256;2023-03-08T09:33:41;93218.19;;;15.43;42.31
41690;BME280;27372;42.658;23.256;2023-03-08T09:36:07;93213.75;;;15.38;41.92
41690;BME280;27372;42.658;23.256;2023-03-08T09:38:33;93207.38;;;15.93;40.57
41690;BME280;27372;42.658;23.256;2023-03-08T09:41:03;93214.63;;;16.07;40.25
41690;BME280;27372;42.658;23.256;2023-03-08T09:44:12;93215.75;;;16.01;40.91
41690;BME280;27372;42.658;23.256;2023-03-08T09:46:50;93210.75;;;15.99;41.07
41690;BME280;27372;42.658;23.256;2023-03-08T09:49:21;93211.22;;;16.64;39.91
41690;BME280;27372;42.658;23.256;2023-03-08T09:51:52;93202.59;;;16.14;40.47
41690;BME280;27372;42.658;23.256;2023-03-08T09:54:23;93205.22;;;16.77;40.01
41690;BME280;27372;42.658;23.256;2023-03-08T09:56:50;93188.44;;;16.24;40.03
41690;BME280;27372;42.658;23.256;2023-03-08T10:00:18;93206.50;;;16.22;39.82
41690;BME280;27372;42.658;23.256;2023-03-08T10:02:51;93193.50;;;15.53;40.47
41690;BME280;27372;42.658;23.256;2023-03-08T10:05:24;93203.41;;;16.15;40.23
41690;BME280;27372;42.658;23.256;2023-03-08T10:15:51;93179.75;;;17.56;37.17
41690;BME280;27372;42.658;23.256;2023-03-08T10:18:33;93180.94;;;17.92;37.11
41690;BME280;27372;42.658;23.256;2023-03-08T10:21:01;93163.81;;;19.08;35.95
41690;BME280;27372;42.658;23.256;2023-03-08T10:23:30;93158.03;;;17.96;34.84
41690;BME280;27372;42.658;23.256;2023-03-08T10:25:58;93170.34;;;17.78;34.71
41690;BME280;27372;42.658;23.256;2023-03-08T10:28:24;93168.16;;;17.24;34.62
41690;BME280;27372;42.658;23.256;2023-03-08T10:30:55;93178.56;;;16.11;36.71
41690;BME280;27372;42.658;23.256;2023-03-08T10:33:24;93175.41;;;15.36;36.50
41690;BME280;27372;42.658;23.256;2023-03-08T10:35:59;93185.91;;;15.17;38.16
41690;BME280;27372;42.658;23.256;2023-03-08T10:38:29;93192.00;;;14.43;38.86
41690;BME280;27372;42.658;23.256;2023-03-08T10:41:15;93170.16;;;14.32;38.63
41690;BME280;27372;42.658;23.256;2023-03-08T10:43:52;93172.31;;;14.20;39.52
41690;BME280;27372;42.658;23.256;2023-03-08T10:46:26;93162.09;;;13.47;40.97
41690;BME280;27372;42.658;23.256;2023-03-08T10:49:27;93154.53;;;14.36;39.86
41690;BME280;27372;42.658;23.256;2023-03-08T10:54:19;93148.09;;;14.87;39.50
41690;BME280;27372;42.658;23.256;2023-03-08T10:56:52;93153.47;;;13.87;39.88
41690;BME280;27372;42.658;23.256;2023-03-08T10:59:22;93156.25;;;13.56;41.30
41690;BME280;27372;42.658;23.256;2023-03-08T11:01:57;93131.78;;;13.40;41.43
41690;BME280;27372;42.658;23.256;2023-03-08T11:04:26;93159.97;;;13.44;42.18
41690;BME280;27372;42.658;23.256;2023-03-08T11:06:52;93154.25;;;12.85;42.91
41690;BME280;27372;42.658;23.256;2023-03-08T11:09:21;93137.09;;;13.14;42.22
41690;BME280;27372;42.658;23.256;2023-03-08T11:11:47;93132.03;;;13.33;41.88
41690;BME280;27372;42.658;23.256;2023-03-08T11:14:13;93133.09;;;13.32;42.87
41690;BME280;27372;42.658;23.256;2023-03-08T11:27:26;93107.06;;;14.25;40.50
41690;BME280;27372;42.658;23.256;2023-03-08T11:32:55;93091.59;;;14.48;40.13
41690;BME280;27372;42.658;23.256;2023-03-08T11:38:37;93072.19;;;14.93;38.16
41690;BME280;27372;42.658;23.256;2023-03-08T11:41:38;93082.88;;;15.55;37.55
41690;BME280;27372;42.658;23.256;2023-03-08T11:50:51;93077.44;;;16.42;35.64
41690;BME280;27372;42.658;23.256;2023-03-08T11:58:43;93080.56;;;17.66;33.03
41690;BME280;27372;42.658;23.256;2023-03-08T12:01:21;93055.16;;;17.23;33.10
41690;BME280;27372;42.658;23.256;2023-03-08T12:03:52;93063.75;;;17.70;32.77
41690;BME280;27372;42.658;23.256;2023-03-08T12:06:34;93053.78;;;18.50;32.09
41690;BME280;27372;42.658;23.256;2023-03-08T12:09:25;93058.47;;;17.57;33.20
41690;BME280;27372;42.658;23.256;2023-03-08T12:12:20;93061.41;;;16.33;35.43
41690;BME280;27372;42.658;23.256;2023-03-08T12:14:58;93066.22;;;16.64;34.73
41690;BME280;27372;42.658;23.256;2023-03-08T12:17:33;93073.91;;;15.94;36.33
41690;BME280;27372;42.658;23.256;2023-03-08T12:19:59;93068.06;;;16.50;35.39
41690;BME280;27372;42.658;23.256;2023-03-08T12:22:44;93073.38;;;15.73;35.90
41690;BME280;27372;42.658;23.256;2023-03-08T12:28:02;93086.09;;;16.48;35.91
41690;BME280;27372;42.658;23.256;2023-03-08T12:30:41;93079.31;;;16.74;35.26
41690;BME280;27372;42.658;23.256;2023-03-08T12:33:12;93067.34;;;16.44;34.88
41690;BME280;27372;42.658;23.256;2023-03-08T12:40:52;93061.72;;;16.32;34.50
41690;BME280;27372;42.658;23.256;2023-03-08T12:43:29;93064.56;;;17.15;33.40
41690;BME280;27372;42.658;23.256;2023-03-08T12:53:45;93054.81;;;16.50;35.10
41690;BME280;27372;42.658;23.256;2023-03-08T12:56:26;93050.16;;;17.72;32.99
41690;BME280;27372;42.658;23.256;2023-03-08T12:59:01;93045.03;;;19.52;30.62
41690;BME280;27372;42.658;23.256;2023-03-08T13:03:53;93050.94;;;18.23;31.91
41690;BME280;27372;42.658;23.256;2023-03-08T13:09:06;93030.78;;;18.45;31.56
41690;BME280;27372;42.658;23.256;2023-03-08T13:11:46;93025.84;;;17.42;32.47
41690;BME280;27372;42.658;23.256;2023-03-08T13:14:24;93049.16;;;17.17;33.50
41690;BME280;27372;42.658;23.256;2023-03-08T13:16:50;93034.84;;;17.69;33.14
41690;BME280;27372;42.658;23.256;2023-03-08T13:22:15;93029.59;;;20.16;29.48
41690;BME280;27372;42.658;23.256;2023-03-08T13:24:54;93015.91;;;20.79;27.96
41690;BME280;27372;42.658;23.256;2023-03-08T13:29:52;93022.09;;;20.27;28.66
41690;BME280;27372;42.658;23.256;2023-03-08T13:32:20;93035.47;;;21.39;27.18
41690;BME280;27372;42.658;23.256;2023-03-08T13:34:59;93026.59;;;18.53;29.30
41690;BME280;27372;42.658;23.256;2023-03-08T13:37:27;93029.88;;;17.39;31.73
41690;BME280;27372;42.658;23.256;2023-03-08T13:39:58;93035.38;;;16.21;33.88
41690;BME280;27372;42.658;23.256;2023-03-08T13:42:25;93029.16;;;16.31;34.06
41690;BME280;27372;42.658;23.256;2023-03-08T13:44:53;93027.13;;;15.90;35.33
41690;BME280;27372;42.658;23.256;2023-03-08T13:47:33;93029.53;;;14.75;37.36
41690;BME280;27372;42.658;23.256;2023-03-08T13:49:59;93029.72;;;14.54;37.36
41690;BME280;27372;42.658;23.256;2023-03-08T13:52:30;93022.53;;;14.60;38.01
41690;BME280;27372;42.658;23.256;2023-03-08T13:54:59;93024.03;;;14.07;38.91
41690;BME280;27372;42.658;23.256;2023-03-08T13:57:34;93017.94;;;13.72;39.17
41690;BME280;27372;42.658;23.256;2023-03-08T14:00:18;93029.88;;;14.34;39.28
41690;BME280;27372;42.658;23.256;2023-03-08T14:02:45;93017.19;;;14.36;38.74
41690;BME280;27372;42.658;23.256;2023-03-08T14:05:29;93020.91;;;14.35;38.82
41690;BME280;27372;42.658;23.256;2023-03-08T14:07:57;93017.25;;;14.60;38.77